sensor_id;sensor_type;location;lat;lon;timestamp;pressure;altitude;pressure_sealevel;temperature;humidity
55442;BME280;41313;58.740;50.174;2022-11-27T00:04:16;102604.50;;;-2.19;47.37
55442;BME280;41313;58.740;50.174;2022-11-27T00:09:17;102599.41;;;-2.40;47.91
55442;BME280;41313;58.740;50.174;2022-11-27T00:14:20;102599.59;;;-2.13;47.75
55442;BME280;41313;58.740;50.174;2022-11-27T00:19:22;102576.81;;;-2.02;47.62
55442;BME280;41313;58.740;50.174;2022-11-27T00:24:23;102596.53;;;-2.02;47.46
55442;BME280;41313;58.740;50.174;2022-11-27T00:29:25;102596.06;;;-2.15;47.48
55442;BME280;41313;58.740;50.174;2022-11-27T00:34:29;102590.50;;;-2.03;47.60
55442;BME280;41313;58.740;50.174;2022-11-27T00:39:31;102602.88;;;-2.17;48.22
55442;BME280;41313;58.740;50.174;2022-11-27T00:44:33;102619.78;;;-2.23;48.16
55442;BME280;41313;58.740;50.174;2022-11-27T00:49:35;102612.72;;;-2.07;48.08
55442;BME280;41313;58.740;50.174;2022-11-27T00:54:37;102612.59;;;-1.87;47.93
55442;BME280;41313;58.740;50.174;2022-11-27T00:59:38;102613.41;;;-2.11;47.63
55442;BME280;41313;58.740;50.174;2022-11-27T01:04:43;102620.22;;;-2.13;47.87
55442;BME280;41313;58.740;50.174;2022-11-27T01:09:45;102625.81;;;-1.78;47.45
55442;BME280;41313;58.740;50.174;2022-11-27T01:14:47;102629.56;;;-1.92;47.58
55442;BME280;41313;58.740;50.174;2022-11-27T01:19:48;102626.06;;;-2.39;48.36
55442;BME280;41313;58.740;50.174;2022-11-27T01:24:50;102625.25;;;-2.16;48.42
55442;BME280;41313;58.740;50.174;2022-11-27T01:29:52;102623.31;;;-1.99;48.36
55442;BME280;41313;58.740;50.174;2022-11-27T01:34:54;102623.13;;;-1.81;47.46
55442;BME280;41313;58.740;50.174;2022-11-27T01:39:56;102634.50;;;-1.98;48.17
55442;BME280;41313;58.740;50.174;2022-11-27T01:44:57;102630.28;;;-1.96;48.13
55442;BME280;41313;58.740;50.174;2022-11-27T01:50:06;102627.44;;;-1.80;47.34
55442;BME280;41313;58.740;50.174;2022-11-27T01:55:16;102641.53;;;-1.70;47.52
55442;BME280;41313;58.740;50.174;2022-11-27T02:00:20;102644.56;;;-2.04;48.25
55442;BME280;41313;58.740;50.174;2022-11-27T02:05:24;102648.78;;;-1.84;48.70
55442;BME280;41313;58.740;50.174;2022-11-27T02:10:52;102648.06;;;-1.57;47.67
55442;BME280;41313;58.740;50.174;2022-11-27T02:26:53;102646.94;;;-1.64;47.75
55442;BME280;41313;58.740;50.174;2022-11-27T02:32:16;102651.31;;;-1.62;47.33
55442;BME280;41313;58.740;50.174;2022-11-27T02:37:29;102650.22;;;-1.44;47.67
55442;BME280;41313;58.740;50.174;2022-11-27T02:42:44;102650.16;;;-1.70;47.41
55442;BME280;41313;58.740;50.174;2022-11-27T02:47:49;102651.44;;;-1.58;47.48
55442;BME280;41313;58.740;50.174;2022-11-27T02:52:54;102656.59;;;-1.58;47.64
55442;BME280;41313;58.740;50.174;2022-11-27T02:58:01;102654.50;;;-1.21;47.10
55442;BME280;41313;58.740;50.174;2022-11-27T03:03:07;102665.59;;;-1.47;47.29
55442;BME280;41313;58.740;50.174;2022-11-27T03:08:31;102668.81;;;-1.30;47.28
55442;BME280;41313;58.740;50.174;2022-11-27T03:13:38;102674.72;;;-1.57;47.76
55442;BME280;41313;58.740;50.174;2022-11-27T03:24:11;102676.69;;;-1.50;47.79
55442;BME280;41313;58.740;50.174;2022-11-27T03:29:17;102691.47;;;-1.46;47.66
55442;BME280;41313;58.740;50.174;2022-11-27T03:34:21;102698.56;;;-1.63;48.03
55442;BME280;41313;58.740;50.174;2022-11-27T03:39:23;102694.59;;;-1.54;47.78
55442;BME280;41313;58.740;50.174;2022-11-27T03:44:37;102688.69;;;-1.28;47.42
55442;BME280;41313;58.740;50.174;2022-11-27T03:55:43;102697.44;;;-1.23;47.21
55442;BME280;41313;58.740;50.174;2022-11-27T04:00:49;102692.47;;;-1.18;47.05
55442;BME280;41313;58.740;50.174;2022-11-27T04:05:52;102699.75;;;-1.30;47.50
55442;BME280;41313;58.740;50.174;2022-11-27T04:10:54;102700.13;;;-1.20;47.20
55442;BME280;41313;58.740;50.174;2022-11-27T04:15:59;102706.78;;;-1.26;47.13
55442;BME280;41313;58.740;50.174;2022-11-27T04:21:02;102700.97;;;-1.45;47.15
55442;BME280;41313;58.740;50.174;2022-11-27T04:26:04;102708.97;;;-1.37;47.33
55442;BME280;41313;58.740;50.174;2022-11-27T04:31:06;102711.91;;;-1.50;47.60
55442;BME280;41313;58.740;50.174;2022-11-27T04:36:08;102715.66;;;-1.42;47.59
55442;BME280;41313;58.740;50.174;2022-11-27T04:41:09;102718.09;;;-1.23;47.61
55442;BME280;41313;58.740;50.174;2022-11-27T04:46:11;102712.47;;;-1.35;47.51
55442;BME280;41313;58.740;50.174;2022-11-27T04:51:13;102711.28;;;-1.21;47.36
55442;BME280;41313;58.740;50.174;2022-11-27T04:56:15;102714.00;;;-1.16;47.20
55442;BME280;41313;58.740;50.174;2022-11-27T05:01:17;102719.88;;;-0.96;46.90
55442;BME280;41313;58.740;50.174;2022-11-27T05:06:19;102722.34;;;-1.25;47.13
55442;BME280;41313;58.740;50.174;2022-11-27T05:11:22;102725.25;;;-1.16;47.65
55442;BME280;41313;58.740;50.174;2022-11-27T05:16:24;102728.16;;;-1.06;47.35
55442;BME280;41313;58.740;50.174;2022-11-27T05:21:26;102731.91;;;-0.97;46.81
55442;BME280;41313;58.740;50.174;2022-11-27T05:26:28;102729.78;;;-1.08;47.27
55442;BME280;41313;58.740;50.174;2022-11-27T05:31:30;102724.69;;;-1.07;47.38
55442;BME280;41313;58.740;50.174;2022-11-27T05:36:32;102732.59;;;-1.02;46.90
55442;BME280;41313;58.740;50.174;2022-11-27T05:41:36;102726.00;;;-0.94;47.58
55442;BME280;41313;58.740;50.174;2022-11-27T05:46:38;102740.03;;;-1.34;47.54
55442;BME280;41313;58.740;50.174;2022-11-27T05:51:40;102737.66;;;-1.74;48.31
55442;BME280;41313;58.740;50.174;2022-11-27T05:56:41;102745.91;;;-1.38;47.98
55442;BME280;41313;58.740;50.174;2022-11-27T06:01:43;102746.16;;;-1.08;47.47
55442;BME280;41313;58.740;50.174;2022-11-27T06:06:45;102742.34;;;-1.18;47.54
55442;BME280;41313;58.740;50.174;2022-11-27T06:11:47;102737.84;;;-1.23;47.22
55442;BME280;41313;58.740;50.174;2022-11-27T06:16:49;102749.38;;;-0.89;47.19
55442;BME280;41313;58.740;50.174;2022-11-27T06:21:51;102746.97;;;-1.09;47.56
55442;BME280;41313;58.740;50.174;2022-11-27T06:26:53;102748.06;;;-1.02;47.49
55442;BME280;41313;58.740;50.174;2022-11-27T06:31:55;102754.97;;;-1.01;47.74
55442;BME280;41313;58.740;50.174;2022-11-27T06:36:57;102764.41;;;-0.78;47.19
55442;BME280;41313;58.740;50.174;2022-11-27T06:41:58;102763.75;;;-0.98;47.87
55442;BME280;41313;58.740;50.174;2022-11-27T06:47:01;102768.13;;;-0.95;47.06
55442;BME280;41313;58.740;50.174;2022-11-27T06:52:07;102773.44;;;-0.66;46.93
55442;BME280;41313;58.740;50.174;2022-11-27T06:57:56;102771.69;;;-0.67;46.92
55442;BME280;41313;58.740;50.174;2022-11-27T07:03:02;102777.19;;;-0.82;47.05
55442;BME280;41313;58.740;50.174;2022-11-27T07:08:05;102775.72;;;-0.50;47.21
55442;BME280;41313;58.740;50.174;2022-11-27T07:13:10;102778.91;;;-0.57;46.65
55442;BME280;41313;58.740;50.174;2022-11-27T07:18:37;102772.69;;;-0.88;47.75
55442;BME280;41313;58.740;50.174;2022-11-27T07:23:43;102770.94;;;-1.13;48.08
55442;BME280;41313;58.740;50.174;2022-11-27T07:28:51;102785.28;;;-0.72;47.62
55442;BME280;41313;58.740;50.174;2022-11-27T07:33:59;102776.59;;;-0.50;47.20
55442;BME280;41313;58.740;50.174;2022-11-27T07:39:06;102783.44;;;-0.76;47.32
55442;BME280;41313;58.740;50.174;2022-11-27T07:44:10;102778.06;;;-0.32;46.60
55442;BME280;41313;58.740;50.174;2022-11-27T07:49:15;102783.53;;;0.04;46.31
55442;BME280;41313;58.740;50.174;2022-11-27T07:54:26;102776.41;;;-0.03;46.18
55442;BME280;41313;58.740;50.174;2022-11-27T07:59:32;102772.06;;;-0.04;46.32
55442;BME280;41313;58.740;50.174;2022-11-27T08:04:39;102784.06;;;-0.06;46.50
55442;BME280;41313;58.740;50.174;2022-11-27T08:09:57;102783.47;;;-0.25;46.52
55442;BME280;41313;58.740;50.174;2022-11-27T08:15:09;102788.34;;;0.20;45.82
55442;BME280;41313;58.740;50.174;2022-11-27T08:20:17;102790.41;;;0.31;45.69
55442;BME280;41313;58.740;50.174;2022-11-27T08:25:21;102794.81;;;0.06;46.06
55442;BME280;41313;58.740;50.174;2022-11-27T08:30:28;102805.25;;;0.09;46.08
55442;BME280;41313;58.740;50.174;2022-11-27T08:35:32;102810.63;;;0.15;46.07
55442;BME280;41313;58.740;50.174;2022-11-27T08:40:35;102816.81;;;0.20;46.09
55442;BME280;41313;58.740;50.174;2022-11-27T08:45:55;102819.16;;;0.40;45.94
55442;BME280;41313;58.740;50.174;2022-11-27T08:51:29;102815.81;;;0.44;45.80
55442;BME280;41313;58.740;50.174;2022-11-27T08:56:40;102824.25;;;0.38;45.88
55442;BME280;41313;58.740;50.174;2022-11-27T09:01:42;102825.56;;;0.53;45.67
55442;BME280;41313;58.740;50.174;2022-11-27T09:06:44;102826.22;;;0.45;46.21
55442;BME280;41313;58.740;50.174;2022-11-27T09:11:45;102822.56;;;0.12;46.47
55442;BME280;41313;58.740;50.174;2022-11-27T09:16:47;102826.44;;;0.25;46.54
55442;BME280;41313;58.740;50.174;2022-11-27T09:21:49;102828.84;;;0.47;46.47
55442;BME280;41313;58.740;50.174;2022-11-27T09:26:51;102823.41;;;0.11;46.68
55442;BME280;41313;58.740;50.174;2022-11-27T09:31:53;102815.28;;;0.54;46.38
55442;BME280;41313;58.740;50.174;2022-11-27T09:36:55;102815.38;;;0.57;46.34
55442;BME280;41313;58.740;50.174;2022-11-27T09:41:58;102807.19;;;0.43;46.68
55442;BME280;41313;58.740;50.174;2022-11-27T09:57:32;102822.78;;;0.45;46.24
55442;BME280;41313;58.740;50.174;2022-11-27T10:02:36;102813.72;;;0.32;46.83
55442;BME280;41313;58.740;50.174;2022-11-27T10:07:45;102816.66;;;0.43;46.70
55442;BME280;41313;58.740;50.174;2022-11-27T10:13:14;102810.41;;;0.65;46.12
55442;BME280;41313;58.740;50.174;2022-11-27T10:18:42;102813.59;;;0.56;46.25
55442;BME280;41313;58.740;50.174;2022-11-27T10:24:18;102819.09;;;0.65;46.45
55442;BME280;41313;58.740;50.174;2022-11-27T10:29:46;102822.19;;;0.54;46.46
55442;BME280;41313;58.740;50.174;2022-11-27T10:35:02;102822.47;;;0.64;46.52
55442;BME280;41313;58.740;50.174;2022-11-27T10:45:49;102827.00;;;0.43;46.60
55442;BME280;41313;58.740;50.174;2022-11-27T10:50:52;102841.47;;;0.36;46.61
55442;BME280;41313;58.740;50.174;2022-11-27T11:01:41;102823.19;;;0.32;47.09
55442;BME280;41313;58.740;50.174;2022-11-27T11:06:48;102830.44;;;0.42;46.60
55442;BME280;41313;58.740;50.174;2022-11-27T11:11:53;102824.03;;;0.59;46.31
55442;BME280;41313;58.740;50.174;2022-11-27T11:16:55;102834.41;;;0.59;46.64
55442;BME280;41313;58.740;50.174;2022-11-27T11:22:10;102838.81;;;0.35;46.91
55442;BME280;41313;58.740;50.174;2022-11-27T11:27:19;102836.88;;;0.28;47.26
55442;BME280;41313;58.740;50.174;2022-11-27T11:32:28;102834.63;;;0.38;46.97
55442;BME280;41313;58.740;50.174;2022-11-27T11:37:34;102835.47;;;0.66;46.39
55442;BME280;41313;58.740;50.174;2022-11-27T11:42:36;102834.19;;;0.25;47.00
55442;BME280;41313;58.740;50.174;2022-11-27T11:47:46;102836.09;;;0.30;47.00
55442;BME280;41313;58.740;50.174;2022-11-27T11:53:00;102837.41;;;0.17;47.49
55442;BME280;41313;58.740;50.174;2022-11-27T12:03:24;102842.72;;;0.22;47.41
55442;BME280;41313;58.740;50.174;2022-11-27T12:08:59;102853.16;;;0.52;46.93
55442;BME280;41313;58.740;50.174;2022-11-27T12:14:10;102863.78;;;0.33;47.20
55442;BME280;41313;58.740;50.174;2022-11-27T12:19:23;102855.88;;;0.30;47.44
55442;BME280;41313;58.740;50.174;2022-11-27T12:30:07;102856.50;;;0.21;47.55
55442;BME280;41313;58.740;50.174;2022-11-27T12:35:40;102860.78;;;0.48;46.80
55442;BME280;41313;58.740;50.174;2022-11-27T12:46:02;102872.63;;;0.39;47.22
55442;BME280;41313;58.740;50.174;2022-11-27T12:51:09;102871.31;;;0.27;47.52
55442;BME280;41313;58.740;50.174;2022-11-27T12:56:19;102869.63;;;0.54;47.18
55442;BME280;41313;58.740;50.174;2022-11-27T13:01:29;102874.56;;;0.47;47.71
55442;BME280;41313;58.740;50.174;2022-11-27T13:12:03;102867.31;;;0.09;47.99
55442;BME280;41313;58.740;50.174;2022-11-27T13:17:10;102886.03;;;0.02;48.36
55442;BME280;41313;58.740;50.174;2022-11-27T13:22:28;102896.72;;;-0.13;48.34
55442;BME280;41313;58.740;50.174;2022-11-27T13:27:35;102879.00;;;-0.02;48.63
55442;BME280;41313;58.740;50.174;2022-11-27T13:32:48;102881.38;;;0.17;48.12
55442;BME280;41313;58.740;50.174;2022-11-27T13:38:08;102884.72;;;0.15;48.35
55442;BME280;41313;58.740;50.174;2022-11-27T13:48:39;102886.63;;;0.46;47.85
55442;BME280;41313;58.740;50.174;2022-11-27T13:53:43;102891.53;;;0.38;47.70
55442;BME280;41313;58.740;50.174;2022-11-27T13:58:45;102884.69;;;0.13;47.84
55442;BME280;41313;58.740;50.174;2022-11-27T14:03:49;102882.97;;;0.39;47.62
55442;BME280;41313;58.740;50.174;2022-11-27T14:09:04;102874.72;;;0.51;47.30
55442;BME280;41313;58.740;50.174;2022-11-27T14:19:32;102890.47;;;0.32;47.40
55442;BME280;41313;58.740;50.174;2022-11-27T14:24:38;102887.09;;;0.61;47.09
55442;BME280;41313;58.740;50.174;2022-11-27T14:29:47;102887.94;;;0.60;47.30
55442;BME280;41313;58.740;50.174;2022-11-27T14:34:50;102890.38;;;0.29;47.47
55442;BME280;41313;58.740;50.174;2022-11-27T14:39:54;102896.13;;;0.47;47.50
55442;BME280;41313;58.740;50.174;2022-11-27T14:45:13;102894.75;;;0.58;47.29
55442;BME280;41313;58.740;50.174;2022-11-27T14:50:28;102886.22;;;0.34;47.54
55442;BME280;41313;58.740;50.174;2022-11-27T14:55:31;102891.09;;;0.25;47.67
55442;BME280;41313;58.740;50.174;2022-11-27T15:00:33;102886.81;;;-0.01;48.21
55442;BME280;41313;58.740;50.174;2022-11-27T15:05:37;102891.19;;;0.02;48.03
55442;BME280;41313;58.740;50.174;2022-11-27T15:10:40;102888.25;;;0.17;47.87
55442;BME280;41313;58.740;50.174;2022-11-27T15:15:43;102896.69;;;0.11;48.21
55442;BME280;41313;58.740;50.174;2022-11-27T15:20:46;102893.16;;;-0.16;47.91
55442;BME280;41313;58.740;50.174;2022-11-27T15:26:02;102900.13;;;0.12;48.10
55442;BME280;41313;58.740;50.174;2022-11-27T15:31:27;102891.41;;;0.08;47.64
55442;BME280;41313;58.740;50.174;2022-11-27T15:36:40;102890.53;;;0.08;47.85
55442;BME280;41313;58.740;50.174;2022-11-27T15:41:52;102893.28;;;0.12;47.87
55442;BME280;41313;58.740;50.174;2022-11-27T15:46:55;102893.50;;;0.18;47.48
55442;BME280;41313;58.740;50.174;2022-11-27T15:51:58;102898.41;;;-0.15;48.17
55442;BME280;41313;58.740;50.174;2022-11-27T15:56:59;102892.22;;;-0.18;48.01
55442;BME280;41313;58.740;50.174;2022-11-27T16:02:02;102892.75;;;-0.29;48.40
55442;BME280;41313;58.740;50.174;2022-11-27T16:07:04;102891.34;;;-0.19;48.14
55442;BME280;41313;58.740;50.174;2022-11-27T16:12:06;102900.75;;;-0.45;48.64
55442;BME280;41313;58.740;50.174;2022-11-27T16:17:08;102902.78;;;-0.60;48.96
55442;BME280;41313;58.740;50.174;2022-11-27T16:22:10;102903.97;;;-0.52;48.75
55442;BME280;41313;58.740;50.174;2022-11-27T16:27:12;102909.75;;;-0.59;48.95
55442;BME280;41313;58.740;50.174;2022-11-27T16:32:14;102911.59;;;-0.55;48.83
55442;BME280;41313;58.740;50.174;2022-11-27T16:37:16;102914.09;;;-0.81;48.78
55442;BME280;41313;58.740;50.174;2022-11-27T16:42:18;102907.63;;;-0.70;49.33
55442;BME280;41313;58.740;50.174;2022-11-27T16:47:20;102916.34;;;-0.43;48.74
55442;BME280;41313;58.740;50.174;2022-11-27T16:52:23;102913.69;;;-0.45;48.66
55442;BME280;41313;58.740;50.174;2022-11-27T16:57:26;102908.50;;;-0.45;48.23
55442;BME280;41313;58.740;50.174;2022-11-27T17:02:28;102914.59;;;-0.44;48.48
55442;BME280;41313;58.740;50.174;2022-11-27T17:07:30;102915.22;;;-0.02;47.72
55442;BME280;41313;58.740;50.174;2022-11-27T17:12:32;102912.47;;;-0.31;47.50
55442;BME280;41313;58.740;50.174;2022-11-27T17:17:34;102910.31;;;-0.18;47.67
55442;BME280;41313;58.740;50.174;2022-11-27T17:22:41;102920.00;;;-0.37;47.99
55442;BME280;41313;58.740;50.174;2022-11-27T17:27:43;102924.41;;;-0.58;48.11
55442;BME280;41313;58.740;50.174;2022-11-27T17:32:45;102927.41;;;-0.24;48.08
55442;BME280;41313;58.740;50.174;2022-11-27T17:37:48;102933.44;;;-0.47;47.76
55442;BME280;41313;58.740;50.174;2022-11-27T17:42:50;102931.41;;;-0.32;47.53
55442;BME280;41313;58.740;50.174;2022-11-27T17:47:55;102928.84;;;-0.54;47.77
55442;BME280;41313;58.740;50.174;2022-11-27T17:53:00;102935.19;;;-0.46;47.73
55442;BME280;41313;58.740;50.174;2022-11-27T17:58:03;102931.50;;;-0.29;47.33
55442;BME280;41313;58.740;50.174;2022-11-27T18:03:05;102934.25;;;-0.48;47.75
55442;BME280;41313;58.740;50.174;2022-11-27T18:08:08;102936.69;;;-0.53;47.60
55442;BME280;41313;58.740;50.174;2022-11-27T18:13:10;102940.00;;;-0.33;47.55
55442;BME280;41313;58.740;50.174;2022-11-27T18:18:12;102928.28;;;-0.47;47.19
55442;BME280;41313;58.740;50.174;2022-11-27T18:23:14;102932.06;;;-0.37;47.53
55442;BME280;41313;58.740;50.174;2022-11-27T18:28:16;102937.44;;;-0.31;47.62
55442;BME280;41313;58.740;50.174;2022-11-27T18:33:17;102934.69;;;-0.36;47.51
55442;BME280;41313;58.740;50.174;2022-11-27T18:38:19;102938.22;;;-0.34;47.52
55442;BME280;41313;58.740;50.174;2022-11-27T18:43:21;102933.81;;;-0.36;47.17
55442;BME280;41313;58.740;50.174;2022-11-27T18:48:23;102922.38;;;-0.43;47.37
55442;BME280;41313;58.740;50.174;2022-11-27T18:53:25;102932.59;;;-0.22;46.89
55442;BME280;41313;58.740;50.174;2022-11-27T18:58:27;102940.03;;;-0.55;48.00
55442;BME280;41313;58.740;50.174;2022-11-27T19:03:31;102936.38;;;-0.60;47.34
55442;BME280;41313;58.740;50.174;2022-11-27T19:08:34;102936.13;;;-0.44;47.71
55442;BME280;41313;58.740;50.174;2022-11-27T19:13:37;102939.28;;;-0.29;47.05
55442;BME280;41313;58.740;50.174;2022-11-27T19:18:40;102945.81;;;-0.38;47.21
55442;BME280;41313;58.740;50.174;2022-11-27T19:23:43;102947.75;;;-0.33;47.49
55442;BME280;41313;58.740;50.174;2022-11-27T19:28:50;102949.28;;;-0.14;46.91
55442;BME280;41313;58.740;50.174;2022-11-27T19:33:56;102953.72;;;-0.34;47.19
55442;BME280;41313;58.740;50.174;2022-11-27T19:39:06;102953.78;;;-0.79;47.47
55442;BME280;41313;58.740;50.174;2022-11-27T19:44:11;102958.53;;;-0.67;47.92
55442;BME280;41313;58.740;50.174;2022-11-27T19:49:14;102953.28;;;-0.69;47.65
55442;BME280;41313;58.740;50.174;2022-11-27T19:54:17;102956.94;;;-0.63;47.39
55442;BME280;41313;58.740;50.174;2022-11-27T19:59:20;102951.75;;;-0.41;47.24
55442;BME280;41313;58.740;50.174;2022-11-27T20:04:22;102952.75;;;-0.60;47.44
55442;BME280;41313;58.740;50.174;2022-11-27T20:09:25;102953.78;;;-0.56;47.64
55442;BME280;41313;58.740;50.174;2022-11-27T20:14:29;102944.50;;;-0.74;48.06
55442;BME280;41313;58.740;50.174;2022-11-27T20:19:32;102952.84;;;-1.03;47.87
55442;BME280;41313;58.740;50.174;2022-11-27T20:24:35;102955.38;;;-0.82;47.73
55442;BME280;41313;58.740;50.174;2022-11-27T20:29:37;102959.09;;;-0.52;47.21
55442;BME280;41313;58.740;50.174;2022-11-27T20:34:40;102944.69;;;-0.21;46.50
55442;BME280;41313;58.740;50.174;2022-11-27T20:39:42;102949.75;;;-0.48;46.89
55442;BME280;41313;58.740;50.174;2022-11-27T20:44:44;102949.44;;;-0.33;46.73
55442;BME280;41313;58.740;50.174;2022-11-27T20:49:46;102960.72;;;-0.54;46.95
55442;BME280;41313;58.740;50.174;2022-11-27T20:54:48;102951.69;;;-0.42;46.60
55442;BME280;41313;58.740;50.174;2022-11-27T20:59:50;102954.06;;;-0.25;46.00
55442;BME280;41313;58.740;50.174;2022-11-27T21:04:52;102972.88;;;-0.51;46.42
55442;BME280;41313;58.740;50.174;2022-11-27T21:09:54;102984.50;;;-0.40;46.27
55442;BME280;41313;58.740;50.174;2022-11-27T21:14:57;102984.72;;;-0.34;46.28
55442;BME280;41313;58.740;50.174;2022-11-27T21:19:59;102989.47;;;-0.91;47.14
55442;BME280;41313;58.740;50.174;2022-11-27T21:25:01;102986.56;;;-0.54;46.52
55442;BME280;41313;58.740;50.174;2022-11-27T21:30:05;102983.84;;;-0.34;46.02
55442;BME280;41313;58.740;50.174;2022-11-27T21:35:07;102993.91;;;-0.42;46.34
55442;BME280;41313;58.740;50.174;2022-11-27T21:40:09;102987.34;;;-0.56;45.73
55442;BME280;41313;58.740;50.174;2022-11-27T21:45:11;102991.19;;;-0.45;46.24
55442;BME280;41313;58.740;50.174;2022-11-27T21:50:13;102990.31;;;-0.46;46.22
55442;BME280;41313;58.740;50.174;2022-11-27T21:55:15;102988.63;;;-0.45;46.31
55442;BME280;41313;58.740;50.174;2022-11-27T22:00:17;102989.16;;;-0.54;46.56
55442;BME280;41313;58.740;50.174;2022-11-27T22:05:20;102988.88;;;-0.61;46.15
55442;BME280;41313;58.740;50.174;2022-11-27T22:10:21;102991.72;;;-0.31;45.57
55442;BME280;41313;58.740;50.174;2022-11-27T22:15:23;103000.69;;;-0.68;46.35
55442;BME280;41313;58.740;50.174;2022-11-27T22:20:27;102993.69;;;-0.71;46.63
55442;BME280;41313;58.740;50.174;2022-11-27T22:25:29;102995.78;;;-1.05;46.82
55442;BME280;41313;58.740;50.174;2022-11-27T22:30:31;103004.84;;;-0.94;46.51
55442;BME280;41313;58.740;50.174;2022-11-27T22:35:33;102998.50;;;-0.80;46.68
55442;BME280;41313;58.740;50.174;2022-11-27T22:40:35;103002.97;;;-0.76;47.00
55442;BME280;41313;58.740;50.174;2022-11-27T22:45:37;103005.19;;;-0.85;46.79
55442;BME280;41313;58.740;50.174;2022-11-27T22:50:39;102998.53;;;-0.33;45.81
55442;BME280;41313;58.740;50.174;2022-11-27T22:55:41;103003.63;;;-0.59;46.25
55442;BME280;41313;58.740;50.174;2022-11-27T23:00:43;103006.09;;;-0.62;46.16
55442;BME280;41313;58.740;50.174;2022-11-27T23:05:45;103008.50;;;-0.44;46.17
55442;BME280;41313;58.740;50.174;2022-11-27T23:10:48;103013.31;;;-0.53;46.77
55442;BME280;41313;58.740;50.174;2022-11-27T23:15:50;103016.22;;;-0.66;46.18
55442;BME280;41313;58.740;50.174;2022-11-27T23:20:52;103014.22;;;-0.51;46.24
55442;BME280;41313;58.740;50.174;2022-11-27T23:25:54;103026.03;;;-0.58;46.21
55442;BME280;41313;58.740;50.174;2022-11-27T23:30:56;103017.63;;;-0.30;45.88
55442;BME280;41313;58.740;50.174;2022-11-27T23:35:59;103016.13;;;-0.47;45.93
55442;BME280;41313;58.740;50.174;2022-11-27T23:41:09;103012.94;;;-0.40;45.78
55442;BME280;41313;58.740;50.174;2022-11-27T23:46:13;103020.44;;;-0.24;45.35
55442;BME280;41313;58.740;50.174;2022-11-27T23:51:17;103016.63;;;-0.33;45.63
55442;BME280;41313;58.740;50.174;2022-11-27T23:56:25;103016.69;;;-0.32;45.67
